Time;durP1;ratioP1;P1;durP2;ratioP2;P2;SDS_P1;SDS_P2;PMS_P1;PMS_P2;Temp;Humidity;BMP_temperature;BMP_pressure;BME280_temperature;BME280_humidity;BME280_pressure;Samples;Min_cycle;Max_cycle;Signal;HPM_P1;HPM_P2
2023/09/05 00:00:01;;;;;;;0.73;0.70;;;;;;;17.07;75.88;93587.09;522140;28;843;-48
2023/09/05 00:00:17;;;;;;;0.80;0.70;;;;;;;17.11;75.85;93586.63;522135;28;824;-47
2023/09/05 00:00:32;;;;;;;0.80;0.80;;;;;;;17.11;76.00;93583.84;522106;28;970;-47
2023/09/05 00:00:48;;;;;;;0.80;0.80;;;;;;;17.10;76.11;93590.75;522151;28;800;-46
2023/09/05 00:01:04;;;;;;;0.80;0.80;;;;;;;17.12;76.34;93585.31;522119;28;812;-46
2023/09/05 00:01:20;;;;;;;0.90;0.90;;;;;;;17.12;76.40;93591.63;522117;28;875;-48
2023/09/05 00:01:35;;;;;;;0.90;0.90;;;;;;;17.12;76.69;93583.28;522078;28;855;-47
2023/09/05 00:01:51;;;;;;;0.97;0.90;;;;;;;17.13;76.68;93587.50;522056;28;985;-49
2023/09/05 00:02:07;;;;;;;1.00;0.80;;;;;;;17.14;76.76;93577.09;522082;28;976;-47
2023/09/05 00:02:24;;;;;;;0.80;0.73;;;;;;;16.44;76.74;93483.44;521881;28;878;-47
2023/09/05 00:02:44;;;;;;;0.88;0.85;;;;;;;17.13;77.00;93581.22;522006;28;824;-47
2023/09/05 00:03:00;;;;;;;1.08;1.05;;;;;;;16.92;77.11;93559.50;521766;28;933;-47
2023/09/05 00:03:18;;;;;;;0.95;0.90;;;;;;;17.16;77.04;93585.59;521769;28;2401;-47
2023/09/05 00:03:33;;;;;;;0.93;0.90;;;;;;;17.16;77.18;93582.81;521869;28;879;-46
2023/09/05 00:03:49;;;;;;;0.80;0.80;;;;;;;17.17;77.33;93590.59;521981;28;804;-47
2023/09/05 00:04:05;;;;;;;0.75;0.70;;;;;;;17.16;77.33;93585.59;521797;28;1114;-47
2023/09/05 00:04:20;;;;;;;1.00;0.90;;;;;;;17.17;76.98;93581.50;522050;28;777;-48
2023/09/05 00:04:36;;;;;;;0.87;0.87;;;;;;;17.09;76.11;93590.00;522097;28;780;-48
2023/09/05 00:04:55;;;;;;;1.00;0.90;;;;;;;16.95;76.17;93582.69;522063;28;840;-47
2023/09/05 00:05:11;;;;;;;0.90;0.90;;;;;;;16.18;75.17;93476.69;521936;28;1058;-46
2023/09/05 00:05:27;;;;;;;0.70;0.70;;;;;;;16.97;75.23;93591.19;522091;28;1989;-47
2023/09/05 00:05:42;;;;;;;0.80;0.80;;;;;;;16.98;75.37;93593.41;522092;28;809;-49
2023/09/05 00:06:04;;;;;;;0.88;0.88;;;;;;;16.96;75.50;93600.88;522104;28;860;-47
2023/09/05 00:06:19;;;;;;;1.20;0.90;;;;;;;16.93;75.37;93596.50;521830;28;1157;-49
2023/09/05 00:06:35;;;;;;;0.93;0.80;;;;;;;16.94;75.37;93600.72;522004;28;867;-46
2023/09/05 00:06:51;;;;;;;1.08;0.98;;;;;;;16.96;75.68;93600.88;522082;28;878;-47
2023/09/05 00:07:07;;;;;;;1.13;1.03;;;;;;;16.98;75.75;93596.19;522130;28;804;-48
2023/09/05 00:07:23;;;;;;;0.90;0.90;;;;;;;17.01;75.77;93588.69;522002;28;1162;-48
2023/09/05 00:07:40;;;;;;;0.90;0.90;;;;;;;16.92;75.98;93575.47;522060;28;935;-46
2023/09/05 00:07:55;;;;;;;1.15;0.90;;;;;;;17.04;75.87;93591.06;522019;28;904;-46
2023/09/05 00:08:10;;;;;;;1.10;0.90;;;;;;;17.07;75.91;93589.13;522100;28;761;-46
2023/09/05 00:08:26;;;;;;;0.90;0.90;;;;;;;17.07;75.86;93595.44;522001;28;856;-49
2023/09/05 00:08:41;;;;;;;1.00;1.00;;;;;;;17.01;75.33;93586.66;522113;28;915;-47
2023/09/05 00:08:56;;;;;;;1.20;1.10;;;;;;;17.00;75.42;93581.66;522055;28;860;-47
2023/09/05 00:09:12;;;;;;;2.22;1.15;;;;;;;17.01;75.39;93589.44;522040;28;883;-47
2023/09/05 00:09:28;;;;;;;1.95;1.13;;;;;;;17.03;75.42;93589.59;521955;28;1201;-47
2023/09/05 00:09:43;;;;;;;1.30;1.20;;;;;;;17.00;75.36;93587.25;522064;28;899;-46
2023/09/05 00:09:58;;;;;;;1.37;1.23;;;;;;;16.97;75.22;93583.56;522144;28;824;-46
2023/09/05 00:10:14;;;;;;;1.55;1.45;;;;;;;16.63;75.26;93542.75;522007;28;864;-47
2023/09/05 00:10:30;;;;;;;1.50;1.40;;;;;;;16.99;75.39;93594.13;522122;28;821;-47
2023/09/05 00:10:45;;;;;;;1.27;1.17;;;;;;;16.95;75.15;93591.78;522114;28;845;-47
2023/09/05 00:11:04;;;;;;;1.20;1.10;;;;;;;16.86;75.29;93578.56;522077;28;861;-47
2023/09/05 00:11:19;;;;;;;1.40;1.30;;;;;;;16.97;75.24;93591.19;522116;28;854;-47
2023/09/05 00:11:34;;;;;;;1.30;1.20;;;;;;;16.98;75.48;93592.69;521943;28;903;-48
2023/09/05 00:11:50;;;;;;;1.40;1.30;;;;;;;17.00;75.48;93593.53;522120;28;820;-47
2023/09/05 00:12:07;;;;;;;1.67;1.55;;;;;;;17.02;75.37;93599.25;522019;28;990;-48
2023/09/05 00:12:22;;;;;;;1.65;1.40;;;;;;;17.05;75.57;93597.34;522032;28;766;-47
2023/09/05 00:12:40;;;;;;;1.30;1.10;;;;;;;17.07;75.55;93594.72;522121;28;918;-47
2023/09/05 00:12:55;;;;;;;1.38;1.20;;;;;;;17.08;75.44;93596.94;522097;28;922;-47
2023/09/05 00:13:11;;;;;;;1.30;1.17;;;;;;;17.09;75.29;93595.59;522059;28;864;-47
2023/09/05 00:13:26;;;;;;;1.20;1.10;;;;;;;17.10;75.71;93591.50;522168;28;840;-49
2023/09/05 00:13:42;;;;;;;1.30;1.20;;;;;;;17.14;75.62;93591.03;522021;28;930;-46
2023/09/05 00:14:00;;;;;;;1.30;1.20;;;;;;;17.15;76.02;93603.69;522248;28;1085;-48
2023/09/05 00:14:18;;;;;;;1.30;1.20;;;;;;;17.15;76.28;93592.53;522017;28;842;-47
2023/09/05 00:14:33;;;;;;;1.38;1.17;;;;;;;17.18;76.08;93600.44;521920;28;825;-48
2023/09/05 00:14:49;;;;;;;1.90;1.40;;;;;;;17.18;76.08;93594.13;521601;28;1272;-48
2023/09/05 00:15:04;;;;;;;1.37;1.20;;;;;;;17.15;75.24;93589.72;521785;28;1314;-46
2023/09/05 00:15:20;;;;;;;1.00;0.90;;;;;;;17.16;75.70;93585.59;521935;28;808;-47
2023/09/05 00:15:35;;;;;;;1.20;1.10;;;;;;;17.17;75.84;93584.28;521936;28;788;-47
2023/09/05 00:15:51;;;;;;;1.60;1.33;;;;;;;17.18;75.84;93591.31;521897;28;1118;-47
2023/09/05 00:16:06;;;;;;;1.60;1.23;;;;;;;17.20;76.13;93591.47;521916;28;777;-47
2023/09/05 00:16:21;;;;;;;1.20;1.10;;;;;;;17.20;76.16;93586.63;521895;28;930;-47
2023/09/05 00:16:38;;;;;;;1.10;1.07;;;;;;;17.20;76.14;93595.00;521926;28;1012;-49
2023/09/05 00:16:53;;;;;;;1.08;1.00;;;;;;;17.22;76.10;93603.50;522049;28;847;-47
2023/09/05 00:17:08;;;;;;;1.10;0.90;;;;;;;17.22;76.11;93594.41;522108;28;932;-46
2023/09/05 00:17:24;;;;;;;1.25;1.13;;;;;;;17.22;75.83;93586.78;521976;28;942;-48
2023/09/05 00:17:41;;;;;;;1.50;1.30;;;;;;;17.20;75.75;93594.25;522117;28;898;-47
2023/09/05 00:17:56;;;;;;;1.33;1.15;;;;;;;17.23;76.19;93599.41;522092;28;921;-46
2023/09/05 00:18:12;;;;;;;1.40;1.10;;;;;;;17.24;76.29;93594.56;521942;28;935;-47
2023/09/05 00:18:27;;;;;;;1.30;1.00;;;;;;;17.23;76.49;93595.88;522172;28;832;-49
2023/09/05 00:18:43;;;;;;;0.90;0.90;;;;;;;17.24;76.22;93591.75;522060;28;855;-48
2023/09/05 00:18:59;;;;;;;0.98;0.90;;;;;;;17.23;75.76;93595.88;522153;28;804;-48
2023/09/05 00:19:15;;;;;;;1.17;1.00;;;;;;;17.23;75.59;93599.41;522057;28;867;-47
2023/09/05 00:19:30;;;;;;;1.30;1.05;;;;;;;17.25;75.45;93593.25;522091;28;808;-47
2023/09/05 00:19:46;;;;;;;1.30;1.20;;;;;;;17.24;75.19;93591.75;522049;28;1218;-47
2023/09/05 00:20:01;;;;;;;1.13;1.10;;;;;;;17.25;75.24;93590.44;521965;28;880;-47
2023/09/05 00:20:17;;;;;;;0.90;0.90;;;;;;;17.26;75.13;93594.72;522090;28;792;-48
2023/09/05 00:20:32;;;;;;;0.98;0.98;;;;;;;17.25;75.16;93591.19;522006;28;1039;-46
2023/09/05 00:20:51;;;;;;;0.93;0.90;;;;;;;17.26;75.01;93598.22;522063;28;884;-47
2023/09/05 00:21:07;;;;;;;0.95;0.95;;;;;;;17.27;75.23;93596.16;521843;28;964;-47
2023/09/05 00:21:23;;;;;;;1.00;1.00;;;;;;;17.25;75.21;93593.25;521888;28;856;-47
2023/09/05 00:21:38;;;;;;;1.10;1.00;;;;;;;17.28;75.12;93592.78;521802;28;854;-47
2023/09/05 00:21:54;;;;;;;0.90;0.90;;;;;;;17.28;75.27;93587.19;521849;28;893;-46
2023/09/05 00:22:09;;;;;;;1.00;1.00;;;;;;;17.28;75.25;93592.78;521771;28;996;-47
2023/09/05 00:22:24;;;;;;;1.20;1.10;;;;;;;17.27;75.49;93590.59;521833;28;1209;-47
2023/09/05 00:22:40;;;;;;;1.07;0.97;;;;;;;17.31;75.66;93590.88;521926;28;926;-48
2023/09/05 00:22:55;;;;;;;1.02;0.90;;;;;;;17.31;75.01;93590.88;521976;28;840;-47
2023/09/05 00:23:10;;;;;;;0.97;0.90;;;;;;;17.31;74.28;93590.88;522114;28;852;-48
2023/09/05 00:23:26;;;;;;;0.80;0.80;;;;;;;17.23;74.19;93573.56;522069;28;829;-46
2023/09/05 00:23:42;;;;;;;0.70;0.70;;;;;;;17.31;74.29;93586.03;522042;28;917;-47
2023/09/05 00:24:22;;;;;;;0.70;0.70;;;;;;;17.31;74.75;93586.03;522062;28;927;-48
2023/09/05 00:24:38;;;;;;;1.17;1.08;;;;;;;17.32;74.89;93590.31;521974;28;934;-48
2023/09/05 00:24:53;;;;;;;0.90;0.90;;;;;;;17.33;74.99;93588.97;522041;28;867;-46
2023/09/05 00:25:11;;;;;;;1.00;1.00;;;;;;;17.31;75.06;93585.28;522089;28;896;-47
2023/09/05 00:25:27;;;;;;;0.90;0.88;;;;;;;17.33;75.00;93588.97;521979;28;1904;-46
2023/09/05 00:25:42;;;;;;;1.10;1.00;;;;;;;17.34;75.02;93595.28;522056;28;885;-46
2023/09/05 00:25:58;;;;;;;1.10;1.00;;;;;;;17.34;75.13;93590.44;522089;28;961;-47
2023/09/05 00:26:13;;;;;;;1.10;1.00;;;;;;;17.35;75.13;93585.56;521740;28;904;-50
2023/09/05 00:26:28;;;;;;;1.35;1.10;;;;;;;17.37;75.51;93591.31;521905;28;876;-47
2023/09/05 00:26:45;;;;;;;1.40;1.00;;;;;;;17.28;75.47;93572.53;521793;28;891;-48
2023/09/05 00:27:03;;;;;;;1.10;1.00;;;;;;;17.36;75.78;93585.00;521847;28;927;-47
2023/09/05 00:27:19;;;;;;;3.03;1.10;;;;;;;17.13;75.74;93547.75;521861;28;962;-47
2023/09/05 00:27:35;;;;;;;2.13;1.07;;;;;;;17.38;75.63;93576.03;521822;28;872;-47
2023/09/05 00:27:50;;;;;;;0.95;0.95;;;;;;;17.37;75.81;93583.66;521934;28;834;-47
2023/09/05 00:28:05;;;;;;;0.90;0.90;;;;;;;17.39;75.81;93583.06;521804;28;843;-46
2023/09/05 00:28:22;;;;;;;0.90;0.90;;;;;;;17.40;75.46;93590.13;522070;28;829;-46
2023/09/05 00:28:37;;;;;;;0.80;0.80;;;;;;;17.39;75.44;93588.66;522156;28;932;-47
2023/09/05 00:28:53;;;;;;;0.93;0.85;;;;;;;17.40;75.16;93590.13;522059;28;883;-47
2023/09/05 00:29:08;;;;;;;1.00;0.90;;;;;;;17.40;75.13;93581.75;522061;28;1071;-48
2023/09/05 00:29:24;;;;;;;1.00;1.00;;;;;;;17.39;75.50;93580.28;522038;28;832;-47
2023/09/05 00:29:40;;;;;;;0.88;0.88;;;;;;;17.40;75.39;93590.13;522065;28;868;-47
2023/09/05 00:29:57;;;;;;;0.80;0.80;;;;;;;17.40;75.13;93588.06;521976;28;867;-47
2023/09/05 00:30:14;;;;;;;0.90;0.90;;;;;;;17.41;75.16;93583.25;521975;28;884;-48
2023/09/05 00:30:31;;;;;;;0.90;0.90;;;;;;;17.41;75.12;93583.25;521970;28;845;-47
2023/09/05 00:30:46;;;;;;;0.88;0.88;;;;;;;17.42;75.21;93587.47;522134;28;989;-47
2023/09/05 00:31:01;;;;;;;0.80;0.70;;;;;;;17.42;75.21;93590.28;521833;28;946;-47
2023/09/05 00:31:17;;;;;;;0.90;0.77;;;;;;;17.42;75.46;93587.47;521978;28;772;-48
2023/09/05 00:31:36;;;;;;;0.83;0.80;;;;;;;17.43;75.48;93589.69;521877;28;765;-48
2023/09/05 00:31:52;;;;;;;0.95;0.82;;;;;;;17.43;75.27;93591.75;521788;28;1085;-48
2023/09/05 00:32:09;;;;;;;1.00;0.90;;;;;;;17.32;74.79;93564.44;521883;28;869;-46
2023/09/05 00:32:24;;;;;;;0.80;0.80;;;;;;;17.44;74.55;93591.16;519830;28;862;-48
2023/09/05 00:32:40;;;;;;;0.73;0.73;;;;;;;17.44;74.45;93582.03;519882;28;753;-48
2023/09/05 00:32:56;;;;;;;0.75;0.75;;;;;;;17.44;74.70;93582.03;520925;28;872;-47
2023/09/05 00:33:12;;;;;;;0.75;0.75;;;;;;;17.46;74.47;93582.19;521899;28;824;-47
2023/09/05 00:33:31;;;;;;;0.70;0.70;;;;;;;17.47;74.58;93580.88;521809;28;880;-47
2023/09/05 00:33:47;;;;;;;0.90;0.90;;;;;;;17.48;74.60;93587.91;521876;28;866;-47
2023/09/05 00:34:03;;;;;;;0.88;0.80;;;;;;;17.49;74.40;93583.81;521796;28;934;-47
2023/09/05 00:34:18;;;;;;;1.13;0.80;;;;;;;17.49;74.38;93589.38;521960;28;813;-46
2023/09/05 00:34:36;;;;;;;0.93;0.80;;;;;;;17.49;74.50;93588.66;522061;28;797;-47
2023/09/05 00:34:51;;;;;;;0.90;0.70;;;;;;;17.49;75.24;93592.19;522092;28;889;-48
2023/09/05 00:35:07;;;;;;;1.02;0.85;;;;;;;17.04;74.87;93517.78;522053;28;801;-47
2023/09/05 00:35:22;;;;;;;0.90;0.90;;;;;;;17.52;74.77;93591.00;521978;28;790;-48
2023/09/05 00:35:37;;;;;;;0.73;0.73;;;;;;;17.52;74.81;93591.00;522063;28;887;-47
2023/09/05 00:35:53;;;;;;;0.80;0.77;;;;;;;17.52;74.72;93588.22;522057;28;827;-49
2023/09/05 00:36:11;;;;;;;1.20;0.90;;;;;;;17.52;74.71;93582.63;521886;28;818;-47
2023/09/05 00:36:27;;;;;;;0.80;0.80;;;;;;;17.52;74.88;93584.72;522026;28;956;-47
2023/09/05 00:36:42;;;;;;;0.73;0.73;;;;;;;17.52;74.78;93587.50;521979;28;862;-47
2023/09/05 00:37:00;;;;;;;0.77;0.77;;;;;;;17.52;74.95;93582.63;521952;28;903;-47
2023/09/05 00:37:22;;;;;;;0.80;0.80;;;;;;;17.52;75.07;93587.50;521996;28;888;-48
2023/09/05 00:37:37;;;;;;;0.88;0.80;;;;;;;17.49;75.29;93575.44;522082;28;1625;-47
2023/09/05 00:37:54;;;;;;;1.02;0.70;;;;;;;17.49;75.22;93577.47;522041;28;855;-46
2023/09/05 00:38:09;;;;;;;0.70;0.70;;;;;;;17.47;75.38;93575.28;521918;28;927;-48
2023/09/05 00:38:25;;;;;;;0.80;0.80;;;;;;;17.48;75.21;93570.44;522012;28;919;-48
2023/09/05 00:38:42;;;;;;;0.83;0.77;;;;;;;17.43;74.88;93570.13;522042;28;853;-47
2023/09/05 00:39:02;;;;;;;0.80;0.80;;;;;;;17.30;74.80;93564.31;522000;28;868;-47
2023/09/05 00:39:17;;;;;;;0.88;0.88;;;;;;;17.44;74.69;93574.41;522081;28;884;-47
2023/09/05 00:39:33;;;;;;;0.98;0.98;;;;;;;17.44;74.73;93577.19;521941;28;876;-47
2023/09/05 00:39:49;;;;;;;0.90;0.90;;;;;;;17.44;74.76;93576.47;522037;28;908;-48
2023/09/05 00:40:05;;;;;;;0.70;0.70;;;;;;;17.41;74.94;93580.44;521903;28;942;-47
2023/09/05 00:40:21;;;;;;;0.60;0.60;;;;;;;17.41;75.01;93580.44;522030;28;1082;-46
2023/09/05 00:40:36;;;;;;;0.87;0.87;;;;;;;17.39;74.82;93580.28;522052;28;888;-47
2023/09/05 00:40:51;;;;;;;0.97;0.90;;;;;;;17.39;74.39;93580.28;522023;28;840;-48
2023/09/05 00:41:07;;;;;;;0.65;0.65;;;;;;;17.37;74.29;93580.88;522056;28;1087;-47
2023/09/05 00:41:23;;;;;;;0.80;0.75;;;;;;;17.38;74.36;93568.41;522042;28;919;-47
2023/09/05 00:41:38;;;;;;;1.10;0.90;;;;;;;17.40;74.33;93576.91;522091;28;840;-47
2023/09/05 00:41:56;;;;;;;1.00;0.90;;;;;;;16.72;74.37;93482.03;521939;28;931;-48
2023/09/05 00:42:12;;;;;;;0.80;0.80;;;;;;;17.37;74.41;93580.13;521979;28;1802;-48
2023/09/05 00:42:28;;;;;;;0.77;0.77;;;;;;;17.33;74.26;93574.28;522011;28;1099;-48
2023/09/05 00:42:43;;;;;;;0.80;0.80;;;;;;;17.37;74.48;93577.34;522065;28;859;-47
2023/09/05 00:42:59;;;;;;;0.80;0.80;;;;;;;17.37;74.71;93569.72;522042;28;1179;-48
2023/09/05 00:43:14;;;;;;;0.70;0.70;;;;;;;17.38;74.87;93576.78;521780;28;836;-47
2023/09/05 00:43:29;;;;;;;0.70;0.70;;;;;;;17.39;74.94;93566.31;521916;28;801;-48
2023/09/05 00:43:48;;;;;;;0.60;0.60;;;;;;;17.39;75.10;93569.84;521917;28;856;-48
2023/09/05 00:44:04;;;;;;;0.60;0.60;;;;;;;17.37;74.80;93569.72;521810;28;790;-47
2023/09/05 00:44:19;;;;;;;0.60;0.60;;;;;;;17.27;74.53;93562.69;521874;28;888;-46
2023/09/05 00:44:35;;;;;;;0.60;0.60;;;;;;;17.03;74.16;93570.06;521830;28;1699;-47
2023/09/05 00:44:50;;;;;;;0.70;0.70;;;;;;;17.05;74.36;93563.88;521877;28;1600;-47
2023/09/05 00:45:06;;;;;;;0.80;0.80;;;;;;;15.91;74.69;93398.84;521877;28;892;-47
2023/09/05 00:45:22;;;;;;;1.00;0.90;;;;;;;16.93;75.11;93571.38;521927;28;1979;-46
2023/09/05 00:45:43;;;;;;;1.10;0.80;;;;;;;16.91;75.40;93569.19;521896;28;916;-46
2023/09/05 00:45:58;;;;;;;1.02;0.88;;;;;;;16.97;75.70;93566.84;519820;28;966;-47
2023/09/05 00:46:14;;;;;;;0.80;0.80;;;;;;;16.99;75.69;93571.81;519715;28;873;-48
2023/09/05 00:46:30;;;;;;;0.67;0.63;;;;;;;16.95;75.76;93574.31;519836;28;848;-46
2023/09/05 00:46:46;;;;;;;0.80;0.60;;;;;;;16.92;76.07;93561.53;517749;28;847;-47
2023/09/05 00:47:01;;;;;;;0.70;0.70;;;;;;;16.98;76.16;93571.09;515612;28;1179;-46
2023/09/05 00:47:17;;;;;;;0.80;0.80;;;;;;;16.98;76.36;93571.09;515731;28;876;-45
2023/09/05 00:47:32;;;;;;;0.80;0.80;;;;;;;16.90;76.12;93578.13;517027;28;793;-47
2023/09/05 00:47:48;;;;;;;0.80;0.80;;;;;;;16.90;76.25;93569.75;518285;28;804;-45
2023/09/05 00:48:07;;;;;;;1.10;1.00;;;;;;;16.78;76.61;93575.22;519689;28;1066;-45
2023/09/05 00:48:29;;;;;;;1.52;0.90;;;;;;;16.76;76.77;93577.13;517697;28;1665;-47
2023/09/05 00:48:44;;;;;;;2.25;0.90;;;;;;;16.68;77.07;93574.44;521712;28;883;-44
2023/09/05 00:49:03;;;;;;;1.10;0.80;;;;;;;16.66;77.23;93572.25;521642;28;848;-47
2023/09/05 00:49:22;;;;;;;1.08;0.82;;;;;;;16.73;77.31;93573.44;519750;28;875;-47
2023/09/05 00:49:47;;;;;;;1.33;0.98;;;;;;;16.79;77.35;93564.78;519828;28;1614;-46
2023/09/05 00:50:05;;;;;;;1.13;0.95;;;;;;;16.84;77.69;93560.97;519677;28;848;-48
2023/09/05 00:50:21;;;;;;;0.80;0.80;;;;;;;16.87;77.65;93563.31;521914;28;944;-46
2023/09/05 00:50:40;;;;;;;0.70;0.70;;;;;;;16.86;77.53;93570.22;520272;28;804;-48
2023/09/05 00:50:56;;;;;;;2.78;0.93;;;;;;;16.82;77.00;93571.97;519100;28;903;-47
2023/09/05 00:51:12;;;;;;;3.33;1.10;;;;;;;16.79;77.25;93564.78;519771;28;880;-47
2023/09/05 00:51:29;;;;;;;1.20;0.80;;;;;;;16.75;77.22;93568.00;517766;28;868;-45
2023/09/05 00:51:50;;;;;;;0.70;0.70;;;;;;;16.70;77.04;93563.44;517754;28;801;-47
2023/09/05 00:52:08;;;;;;;1.50;0.90;;;;;;;16.74;77.35;93574.19;517562;28;887;-46
2023/09/05 00:52:25;;;;;;;1.35;0.88;;;;;;;16.66;77.37;93563.16;515682;28;1025;-46
2023/09/05 00:52:40;;;;;;;0.85;0.85;;;;;;;16.72;77.07;93569.16;516216;28;908;-45
2023/09/05 00:52:56;;;;;;;1.13;1.03;;;;;;;16.74;76.88;93576.97;517746;28;836;-47
2023/09/05 00:53:11;;;;;;;0.98;0.95;;;;;;;16.74;77.11;93572.09;519644;28;859;-46
2023/09/05 00:53:26;;;;;;;0.83;0.83;;;;;;;16.74;77.10;93568.59;521704;28;872;-46
2023/09/05 00:53:42;;;;;;;1.13;1.03;;;;;;;16.75;76.88;93570.06;519743;28;781;-47
2023/09/05 00:54:02;;;;;;;1.30;1.13;;;;;;;16.77;77.10;93562.56;517812;28;856;-48
2023/09/05 00:54:18;;;;;;;1.20;1.10;;;;;;;16.73;76.82;93567.13;518941;28;885;-47
2023/09/05 00:54:37;;;;;;;1.17;1.08;;;;;;;16.76;76.81;93572.28;519722;28;923;-47
2023/09/05 00:54:54;;;;;;;1.20;1.10;;;;;;;16.80;76.90;93563.47;519785;28;1012;-49
2023/09/05 00:55:11;;;;;;;1.27;0.90;;;;;;;16.84;76.90;93567.28;519812;28;919;-46
2023/09/05 00:55:26;;;;;;;1.52;0.90;;;;;;;16.85;76.76;93560.38;519736;28;1625;-47
2023/09/05 00:55:42;;;;;;;0.97;0.97;;;;;;;16.88;76.74;93561.25;519630;28;923;-47
2023/09/05 00:55:57;;;;;;;0.90;0.90;;;;;;;16.89;76.65;93559.94;521706;28;840;-47
2023/09/05 00:56:13;;;;;;;0.80;0.80;;;;;;;16.92;76.60;93561.53;521777;28;976;-47
2023/09/05 00:56:28;;;;;;;0.97;0.90;;;;;;;16.93;76.62;93560.22;521892;28;777;-50
2023/09/05 00:56:44;;;;;;;1.20;1.10;;;;;;;16.95;76.71;93557.59;521880;28;796;-46
2023/09/05 00:57:00;;;;;;;1.25;1.15;;;;;;;16.96;76.64;93557.00;521872;28;1140;-49
2023/09/05 00:57:17;;;;;;;1.10;1.02;;;;;;;16.99;76.81;93560.66;521859;28;777;-48
2023/09/05 00:57:33;;;;;;;1.58;1.10;;;;;;;16.99;76.46;93555.09;520472;28;1639;-47
2023/09/05 00:57:48;;;;;;;1.60;1.00;;;;;;;17.01;76.34;93563.59;521859;28;1158;-48
2023/09/05 00:58:03;;;;;;;1.00;0.90;;;;;;;17.01;76.65;93564.34;521696;28;883;-45
2023/09/05 00:58:19;;;;;;;1.10;1.10;;;;;;;16.85;76.08;93557.56;521897;28;777;-45
2023/09/05 00:58:34;;;;;;;1.27;1.17;;;;;;;16.77;76.10;93557.00;521877;28;1225;-45
2023/09/05 00:58:51;;;;;;;1.30;1.20;;;;;;;16.65;76.54;93559.63;521916;28;792;-45
2023/09/05 00:59:07;;;;;;;1.20;1.10;;;;;;;16.61;76.88;93558.63;519726;28;1017;-47
2023/09/05 00:59:22;;;;;;;1.15;1.05;;;;;;;16.64;76.84;93563.75;519822;28;792;-46
2023/09/05 00:59:37;;;;;;;1.30;1.20;;;;;;;16.68;76.92;93566.09;519621;28;2368;-46
2023/09/05 00:59:53;;;;;;;1.38;1.27;;;;;;;16.73;76.98;93556.72;517781;28;819;-47
2023/09/05 01:00:09;;;;;;;1.40;1.30;;;;;;;16.69;76.69;93559.22;515589;28;844;-46
2023/09/05 01:00:24;;;;;;;1.50;1.40;;;;;;;16.68;76.64;93561.25;515755;28;779;-47
2023/09/05 01:00:39;;;;;;;1.50;1.40;;;;;;;16.74;77.04;93554.66;515763;28;880;-47
2023/09/05 01:00:56;;;;;;;1.45;1.35;;;;;;;16.77;77.01;93550.69;516072;28;939;-47
2023/09/05 01:01:11;;;;;;;1.40;1.30;;;;;;;16.80;77.01;93555.09;517687;28;880;-47
2023/09/05 01:01:28;;;;;;;1.30;1.20;;;;;;;16.83;76.54;93556.72;517795;28;789;-48
2023/09/05 01:01:43;;;;;;;1.40;1.30;;;;;;;16.83;76.85;93553.94;518283;28;968;-48
2023/09/05 01:01:58;;;;;;;1.40;1.30;;;;;;;16.88;76.83;93558.47;519852;28;840;-46
2023/09/05 01:02:14;;;;;;;1.33;1.23;;;;;;;16.83;76.35;93554.66;519818;28;904;-47
2023/09/05 01:02:29;;;;;;;1.57;1.30;;;;;;;16.81;76.24;93557.28;520020;28;804;-48
2023/09/05 01:02:45;;;;;;;1.83;1.33;;;;;;;16.83;76.31;93553.94;519807;28;1241;-47
2023/09/05 01:03:00;;;;;;;1.40;1.25;;;;;;;16.75;76.32;93544.97;519711;28;813;-46
2023/09/05 01:03:15;;;;;;;1.40;1.30;;;;;;;16.73;76.25;93558.75;519775;28;887;-48
2023/09/05 01:03:31;;;;;;;2.00;1.50;;;;;;;16.72;76.04;93560.81;519796;28;867;-47
2023/09/05 01:03:46;;;;;;;2.25;1.50;;;;;;;16.76;76.36;93560.38;519750;28;902;-47
2023/09/05 01:04:02;;;;;;;1.83;1.60;;;;;;;16.78;76.42;93563.31;519707;28;879;-46
2023/09/05 01:04:18;;;;;;;1.80;1.60;;;;;;;16.77;76.29;93561.84;519744;28;902;-48
2023/09/05 01:04:33;;;;;;;1.80;1.42;;;;;;;16.66;76.27;93561.09;519769;28;880;-47
2023/09/05 01:04:48;;;;;;;1.97;1.50;;;;;;;16.70;76.55;93566.22;520015;28;825;-47
2023/09/05 01:05:06;;;;;;;2.00;1.47;;;;;;;16.71;76.36;93561.41;519659;28;1348;-47
2023/09/05 01:05:25;;;;;;;1.90;1.45;;;;;;;16.68;76.50;93560.50;519664;28;1934;-48
2023/09/05 01:05:44;;;;;;;3.53;1.40;;;;;;;16.70;76.66;93548.78;519838;28;1024;-47
2023/09/05 01:06:04;;;;;;;3.25;1.58;;;;;;;16.73;76.61;93553.19;517681;28;828;-48
2023/09/05 01:06:37;;;;;;;1.63;1.52;;;;;;;16.80;76.35;93558.63;518546;28;1155;-47
2023/09/05 01:07:08;;;;;;;1.45;1.35;;;;;;;16.75;75.77;93554.06;518144;28;886;-48
2023/09/05 01:07:34;;;;;;;2.25;1.50;;;;;;;16.60;75.83;93560.66;517638;28;1290;-45
2023/09/05 01:08:14;;;;;;;1.52;1.42;;;;;;;16.58;76.21;93566.09;518253;28;876;-46
2023/09/05 01:08:42;;;;;;;2.63;1.70;;;;;;;16.54;76.27;93551.88;517805;28;935;-47
2023/09/05 01:09:21;;;;;;;2.25;1.60;;;;;;;16.72;76.30;93558.03;517767;28;825;-47
2023/09/05 01:09:45;;;;;;;1.67;1.58;;;;;;;16.73;75.92;93561.53;515656;28;848;-46
2023/09/05 01:10:17;;;;;;;2.88;1.88;;;;;;;16.62;75.80;93560.81;517765;28;814;-45
2023/09/05 01:10:56;;;;;;;1.90;1.48;;;;;;;16.56;75.99;93568.00;517746;28;819;-45
2023/09/05 01:11:13;;;;;;;2.03;1.83;;;;;;;16.57;76.26;93572.97;515679;28;973;-47
2023/09/05 01:11:28;;;;;;;2.00;1.73;;;;;;;16.59;75.94;93567.56;516515;28;1765;-47
2023/09/05 01:11:44;;;;;;;2.10;1.73;;;;;;;16.66;76.18;93577.84;517736;28;870;-47
2023/09/05 01:12:00;;;;;;;2.05;1.80;;;;;;;16.64;75.94;93572.13;515738;28;840;-45
2023/09/05 01:12:16;;;;;;;2.60;1.98;;;;;;;16.64;75.83;93572.13;515633;28;769;-47
2023/09/05 01:12:32;;;;;;;3.15;2.00;;;;;;;16.68;75.90;93577.97;517536;28;930;-48
2023/09/05 01:12:47;;;;;;;3.20;1.70;;;;;;;16.72;75.81;93577.53;519817;28;850;-48
2023/09/05 01:13:03;;;;;;;2.85;1.80;;;;;;;16.73;75.78;93570.66;520652;28;814;-47
2023/09/05 01:13:31;;;;;;;2.30;2.03;;;;;;;16.71;76.08;93564.19;521916;28;772;-47
2023/09/05 01:13:47;;;;;;;2.33;1.98;;;;;;;16.80;76.14;93580.19;522011;28;931;-48
2023/09/05 01:14:02;;;;;;;2.40;1.93;;;;;;;16.83;75.94;93585.31;523822;28;832;-48
2023/09/05 01:14:18;;;;;;;2.13;1.90;;;;;;;16.85;75.92;93581.97;523952;28;983;-48
2023/09/05 01:14:33;;;;;;;2.58;2.22;;;;;;;16.86;75.94;93570.22;523938;28;835;-46
2023/09/05 01:14:49;;;;;;;2.63;2.40;;;;;;;16.87;75.57;93577.25;519950;28;872;-47
2023/09/05 01:15:05;;;;;;;2.30;2.10;;;;;;;16.87;75.49;93573.75;519912;28;841;-48
2023/09/05 01:15:20;;;;;;;2.17;1.98;;;;;;;16.70;75.41;93554.38;519901;28;955;-46
2023/09/05 01:15:36;;;;;;;2.40;2.00;;;;;;;16.90;75.23;93580.91;519962;28;885;-47
2023/09/05 01:15:52;;;;;;;2.60;1.92;;;;;;;16.91;75.06;93576.81;519982;28;782;-47
2023/09/05 01:16:08;;;;;;;2.00;1.70;;;;;;;16.91;74.96;93576.81;519942;28;823;-46
2023/09/05 01:16:23;;;;;;;2.00;1.60;;;;;;;16.93;75.27;93577.72;519865;28;915;-47
2023/09/05 01:16:43;;;;;;;2.00;1.50;;;;;;;16.93;75.18;93574.91;519954;28;1732;-46
2023/09/05 01:17:01;;;;;;;1.85;1.75;;;;;;;16.96;75.45;93584.88;519993;28;814;-47
2023/09/05 01:17:17;;;;;;;2.00;1.90;;;;;;;16.95;75.37;93577.84;519939;28;942;-47
2023/09/05 01:17:32;;;;;;;2.13;1.90;;;;;;;16.91;74.71;93579.59;519884;28;860;-48
2023/09/05 01:17:54;;;;;;;4.25;2.15;;;;;;;16.93;75.08;93585.34;519967;28;855;-47
2023/09/05 01:18:09;;;;;;;4.40;2.13;;;;;;;16.89;74.84;93587.84;519832;28;910;-47
2023/09/05 01:18:24;;;;;;;2.20;1.90;;;;;;;16.85;75.04;93585.47;519876;28;1537;-49
2023/09/05 01:18:41;;;;;;;2.47;1.90;;;;;;;16.86;74.97;93586.19;519934;28;833;-47
2023/09/05 01:18:56;;;;;;;2.22;1.88;;;;;;;16.86;75.19;93592.53;519981;28;923;-48
2023/09/05 01:19:17;;;;;;;2.17;1.97;;;;;;;16.87;75.34;93587.69;519771;28;841;-47
2023/09/05 01:19:36;;;;;;;2.63;2.03;;;;;;;16.86;75.89;93575.06;517683;28;947;-47
2023/09/05 01:19:55;;;;;;;2.10;1.90;;;;;;;16.90;76.00;93578.13;517734;28;895;-49
2023/09/05 01:20:11;;;;;;;2.20;2.00;;;;;;;16.90;75.97;93578.13;517666;28;1443;-48
2023/09/05 01:20:35;;;;;;;2.25;2.00;;;;;;;16.92;75.97;93576.22;517968;28;1163;-46
2023/09/05 01:21:27;;;;;;;2.30;1.95;;;;;;;16.97;75.67;93578.00;521901;28;847;-47
2023/09/05 01:21:54;;;;;;;2.17;1.98;;;;;;;16.75;75.00;93575.63;523838;28;965;-46
2023/09/05 01:22:13;;;;;;;2.20;2.00;;;;;;;16.74;75.29;93583.25;523990;28;812;-46
2023/09/05 01:22:35;;;;;;;2.17;1.88;;;;;;;16.75;75.33;93570.06;524071;28;1045;-46
2023/09/05 01:23:05;;;;;;;2.75;2.10;;;;;;;16.79;75.49;93573.13;523943;28;829;-47
2023/09/05 01:23:24;;;;;;;2.75;2.00;;;;;;;16.82;75.23;93569.94;521860;28;903;-46